sensor_id;sensor_type;location;lat;lon;timestamp;P1;durP1;ratioP1;P2;durP2;ratioP2
78120;SDS011;67585;44.802;10.332;2023-04-03T00:01:26;0.90;;;0.20;;
78120;SDS011;67585;44.802;10.332;2023-04-03T00:03:52;1.70;;;0.20;;
78120;SDS011;67585;44.802;10.332;2023-04-03T00:06:17;1.55;;;0.10;;
78120;SDS011;67585;44.802;10.332;2023-04-03T00:08:43;2.13;;;0.43;;
78120;SDS011;67585;44.802;10.332;2023-04-03T00:11:08;2.85;;;0.10;;
78120;SDS011;67585;44.802;10.332;2023-04-03T00:13:35;2.35;;;0.10;;
78120;SDS011;67585;44.802;10.332;2023-04-03T00:16:01;2.38;;;0.47;;
78120;SDS011;67585;44.802;10.332;2023-04-03T00:18:28;1.60;;;0.30;;
78120;SDS011;67585;44.802;10.332;2023-04-03T00:20:53;0.80;;;0.65;;
78120;SDS011;67585;44.802;10.332;2023-04-03T00:23:19;0.75;;;0.03;;
78120;SDS011;67585;44.802;10.332;2023-04-03T00:25:44;1.70;;;0.10;;
78120;SDS011;67585;44.802;10.332;2023-04-03T00:28:10;1.10;;;0.10;;
78120;SDS011;67585;44.802;10.332;2023-04-03T00:30:36;1.85;;;0.68;;
78120;SDS011;67585;44.802;10.332;2023-04-03T00:33:01;1.00;;;0.10;;
78120;SDS011;67585;44.802;10.332;2023-04-03T00:35:27;2.22;;;0.30;;
78120;SDS011;67585;44.802;10.332;2023-04-03T00:37:54;3.17;;;0.20;;
78120;SDS011;67585;44.802;10.332;2023-04-03T00:40:21;0.88;;;0.10;;
78120;SDS011;67585;44.802;10.332;2023-04-03T00:42:50;1.25;;;0.10;;
78120;SDS011;67585;44.802;10.332;2023-04-03T00:45:25;3.35;;;0.20;;
78120;SDS011;67585;44.802;10.332;2023-04-03T00:47:55;2.28;;;0.10;;
78120;SDS011;67585;44.802;10.332;2023-04-03T00:50:25;1.35;;;0.30;;
78120;SDS011;67585;44.802;10.332;2023-04-03T00:55:17;3.58;;;0.63;;
78120;SDS011;67585;44.802;10.332;2023-04-03T00:57:43;1.58;;;0.10;;
78120;SDS011;67585;44.802;10.332;2023-04-03T01:00:12;2.72;;;0.10;;
78120;SDS011;67585;44.802;10.332;2023-04-03T01:02:41;0.82;;;0.13;;
78120;SDS011;67585;44.802;10.332;2023-04-03T01:05:07;0.95;;;0.13;;
78120;SDS011;67585;44.802;10.332;2023-04-03T01:07:34;1.65;;;0.10;;
78120;SDS011;67585;44.802;10.332;2023-04-03T01:10:03;1.40;;;0.20;;
78120;SDS011;67585;44.802;10.332;2023-04-03T01:15:03;1.48;;;1.20;;
78120;SDS011;67585;44.802;10.332;2023-04-03T01:22:48;0.95;;;0.03;;
78120;SDS011;67585;44.802;10.332;2023-04-03T01:25:30;3.35;;;0.10;;
78120;SDS011;67585;44.802;10.332;2023-04-03T01:27:56;1.27;;;0.15;;
78120;SDS011;67585;44.802;10.332;2023-04-03T01:30:23;0.90;;;0.22;;
78120;SDS011;67585;44.802;10.332;2023-04-03T01:32:55;1.77;;;0.15;;
78120;SDS011;67585;44.802;10.332;2023-04-03T01:35:21;1.17;;;0.17;;
78120;SDS011;67585;44.802;10.332;2023-04-03T01:37:46;1.45;;;0.30;;
78120;SDS011;67585;44.802;10.332;2023-04-03T01:40:12;2.08;;;0.65;;
78120;SDS011;67585;44.802;10.332;2023-04-03T01:42:37;1.50;;;0.80;;
78120;SDS011;67585;44.802;10.332;2023-04-03T01:45:02;1.85;;;0.10;;
78120;SDS011;67585;44.802;10.332;2023-04-03T01:47:28;1.60;;;0.10;;
78120;SDS011;67585;44.802;10.332;2023-04-03T01:49:53;0.82;;;0.17;;
78120;SDS011;67585;44.802;10.332;2023-04-03T01:52:19;1.50;;;0.15;;
78120;SDS011;67585;44.802;10.332;2023-04-03T01:54:44;4.20;;;0.43;;
78120;SDS011;67585;44.802;10.332;2023-04-03T01:57:09;4.25;;;0.20;;
78120;SDS011;67585;44.802;10.332;2023-04-03T01:59:35;0.95;;;0.10;;
78120;SDS011;67585;44.802;10.332;2023-04-03T02:02:01;1.35;;;0.10;;
78120;SDS011;67585;44.802;10.332;2023-04-03T02:04:26;1.45;;;0.10;;
78120;SDS011;67585;44.802;10.332;2023-04-03T02:06:52;1.30;;;0.30;;
78120;SDS011;67585;44.802;10.332;2023-04-03T02:09:17;1.02;;;0.10;;
78120;SDS011;67585;44.802;10.332;2023-04-03T02:11:43;1.05;;;0.10;;
78120;SDS011;67585;44.802;10.332;2023-04-03T02:14:08;2.30;;;0.13;;
78120;SDS011;67585;44.802;10.332;2023-04-03T02:16:33;1.17;;;0.30;;
78120;SDS011;67585;44.802;10.332;2023-04-03T02:18:59;1.10;;;0.30;;
78120;SDS011;67585;44.802;10.332;2023-04-03T02:21:24;2.58;;;0.10;;
78120;SDS011;67585;44.802;10.332;2023-04-03T02:23:49;2.63;;;0.73;;
78120;SDS011;67585;44.802;10.332;2023-04-03T02:26:16;2.10;;;0.30;;
78120;SDS011;67585;44.802;10.332;2023-04-03T02:28:42;0.95;;;0.10;;
78120;SDS011;67585;44.802;10.332;2023-04-03T02:31:08;1.20;;;0.13;;
78120;SDS011;67585;44.802;10.332;2023-04-03T02:33:34;1.55;;;0.30;;
78120;SDS011;67585;44.802;10.332;2023-04-03T02:38:27;1.20;;;0.22;;
78120;SDS011;67585;44.802;10.332;2023-04-03T02:40:52;0.73;;;0.10;;
78120;SDS011;67585;44.802;10.332;2023-04-03T02:43:18;2.13;;;0.13;;
78120;SDS011;67585;44.802;10.332;2023-04-03T02:45:43;1.45;;;0.35;;
78120;SDS011;67585;44.802;10.332;2023-04-03T02:48:09;2.03;;;0.22;;
78120;SDS011;67585;44.802;10.332;2023-04-03T02:50:34;1.30;;;0.20;;
78120;SDS011;67585;44.802;10.332;2023-04-03T02:53:00;1.35;;;0.20;;
78120;SDS011;67585;44.802;10.332;2023-04-03T02:55:25;1.23;;;0.10;;
78120;SDS011;67585;44.802;10.332;2023-04-03T02:57:51;1.73;;;0.35;;
78120;SDS011;67585;44.802;10.332;2023-04-03T03:00:16;1.30;;;0.10;;
78120;SDS011;67585;44.802;10.332;2023-04-03T03:02:42;1.75;;;0.20;;
78120;SDS011;67585;44.802;10.332;2023-04-03T03:05:07;1.08;;;0.10;;
78120;SDS011;67585;44.802;10.332;2023-04-03T03:07:33;1.45;;;0.45;;
78120;SDS011;67585;44.802;10.332;2023-04-03T03:09:59;1.33;;;0.20;;
78120;SDS011;67585;44.802;10.332;2023-04-03T03:12:24;1.88;;;0.10;;
78120;SDS011;67585;44.802;10.332;2023-04-03T03:14:50;1.05;;;0.10;;
78120;SDS011;67585;44.802;10.332;2023-04-03T03:17:16;3.13;;;0.63;;
78120;SDS011;67585;44.802;10.332;2023-04-03T03:19:42;2.47;;;0.10;;
78120;SDS011;67585;44.802;10.332;2023-04-03T03:22:08;1.40;;;0.10;;
78120;SDS011;67585;44.802;10.332;2023-04-03T03:24:33;1.25;;;0.10;;
78120;SDS011;67585;44.802;10.332;2023-04-03T03:26:59;1.20;;;0.10;;
78120;SDS011;67585;44.802;10.332;2023-04-03T03:29:25;2.10;;;0.20;;
78120;SDS011;67585;44.802;10.332;2023-04-03T03:31:50;1.98;;;0.20;;
78120;SDS011;67585;44.802;10.332;2023-04-03T03:34:15;2.53;;;0.35;;
78120;SDS011;67585;44.802;10.332;2023-04-03T03:36:41;2.53;;;0.15;;
78120;SDS011;67585;44.802;10.332;2023-04-03T03:39:06;1.70;;;0.20;;
78120;SDS011;67585;44.802;10.332;2023-04-03T03:41:32;1.25;;;0.28;;
78120;SDS011;67585;44.802;10.332;2023-04-03T03:43:58;3.33;;;0.15;;
78120;SDS011;67585;44.802;10.332;2023-04-03T03:46:23;1.70;;;0.32;;
78120;SDS011;67585;44.802;10.332;2023-04-03T03:48:48;2.10;;;0.57;;
78120;SDS011;67585;44.802;10.332;2023-04-03T03:51:14;2.17;;;0.20;;
78120;SDS011;67585;44.802;10.332;2023-04-03T03:53:40;1.38;;;0.10;;
78120;SDS011;67585;44.802;10.332;2023-04-03T03:56:05;2.97;;;0.20;;
78120;SDS011;67585;44.802;10.332;2023-04-03T03:58:31;1.50;;;0.10;;
78120;SDS011;67585;44.802;10.332;2023-04-03T04:01:00;1.65;;;0.25;;
78120;SDS011;67585;44.802;10.332;2023-04-03T04:03:27;1.42;;;0.25;;
78120;SDS011;67585;44.802;10.332;2023-04-03T04:05:52;2.60;;;0.20;;
78120;SDS011;67585;44.802;10.332;2023-04-03T04:08:17;1.08;;;0.63;;
78120;SDS011;67585;44.802;10.332;2023-04-03T04:10:43;2.40;;;0.57;;
78120;SDS011;67585;44.802;10.332;2023-04-03T04:13:08;1.08;;;0.20;;
78120;SDS011;67585;44.802;10.332;2023-04-03T04:15:34;2.08;;;0.20;;
78120;SDS011;67585;44.802;10.332;2023-04-03T04:17:59;1.27;;;0.35;;
78120;SDS011;67585;44.802;10.332;2023-04-03T04:20:25;3.08;;;0.35;;
78120;SDS011;67585;44.802;10.332;2023-04-03T04:22:50;2.45;;;0.57;;
78120;SDS011;67585;44.802;10.332;2023-04-03T04:25:16;1.30;;;0.10;;
78120;SDS011;67585;44.802;10.332;2023-04-03T04:27:41;2.75;;;0.35;;
78120;SDS011;67585;44.802;10.332;2023-04-03T04:30:07;2.13;;;0.15;;
78120;SDS011;67585;44.802;10.332;2023-04-03T04:32:33;1.42;;;0.30;;
78120;SDS011;67585;44.802;10.332;2023-04-03T04:34:58;1.65;;;0.20;;
78120;SDS011;67585;44.802;10.332;2023-04-03T04:37:24;1.42;;;0.15;;
78120;SDS011;67585;44.802;10.332;2023-04-03T04:39:49;1.15;;;0.10;;
78120;SDS011;67585;44.802;10.332;2023-04-03T04:42:14;1.95;;;0.40;;
78120;SDS011;67585;44.802;10.332;2023-04-03T04:44:40;1.52;;;0.10;;
78120;SDS011;67585;44.802;10.332;2023-04-03T04:47:05;1.95;;;0.35;;
78120;SDS011;67585;44.802;10.332;2023-04-03T04:49:31;1.20;;;0.20;;
78120;SDS011;67585;44.802;10.332;2023-04-03T04:51:56;1.88;;;0.43;;
78120;SDS011;67585;44.802;10.332;2023-04-03T04:54:21;1.30;;;0.30;;
78120;SDS011;67585;44.802;10.332;2023-04-03T04:56:47;1.38;;;0.10;;
78120;SDS011;67585;44.802;10.332;2023-04-03T04:59:12;5.40;;;0.30;;
78120;SDS011;67585;44.802;10.332;2023-04-03T05:01:38;3.45;;;0.57;;
78120;SDS011;67585;44.802;10.332;2023-04-03T05:04:03;2.15;;;0.55;;
78120;SDS011;67585;44.802;10.332;2023-04-03T05:06:29;1.80;;;0.32;;
78120;SDS011;67585;44.802;10.332;2023-04-03T05:11:21;2.85;;;0.30;;
78120;SDS011;67585;44.802;10.332;2023-04-03T05:13:47;2.22;;;0.20;;
78120;SDS011;67585;44.802;10.332;2023-04-03T05:16:12;3.35;;;0.77;;
78120;SDS011;67585;44.802;10.332;2023-04-03T05:18:38;2.38;;;0.45;;
78120;SDS011;67585;44.802;10.332;2023-04-03T05:21:03;6.43;;;1.08;;
78120;SDS011;67585;44.802;10.332;2023-04-03T05:23:29;1.92;;;0.35;;
78120;SDS011;67585;44.802;10.332;2023-04-03T05:25:55;2.60;;;0.20;;
78120;SDS011;67585;44.802;10.332;2023-04-03T05:28:20;2.47;;;0.30;;
78120;SDS011;67585;44.802;10.332;2023-04-03T05:30:52;4.13;;;1.20;;
78120;SDS011;67585;44.802;10.332;2023-04-03T05:33:19;3.83;;;0.52;;
78120;SDS011;67585;44.802;10.332;2023-04-03T05:35:44;3.25;;;0.75;;
78120;SDS011;67585;44.802;10.332;2023-04-03T05:38:10;4.28;;;0.43;;
78120;SDS011;67585;44.802;10.332;2023-04-03T05:40:35;2.38;;;0.38;;
78120;SDS011;67585;44.802;10.332;2023-04-03T05:43:01;2.28;;;0.60;;
78120;SDS011;67585;44.802;10.332;2023-04-03T05:45:26;3.97;;;0.55;;
78120;SDS011;67585;44.802;10.332;2023-04-03T05:47:52;6.28;;;0.40;;
78120;SDS011;67585;44.802;10.332;2023-04-03T05:50:17;3.28;;;0.90;;
78120;SDS011;67585;44.802;10.332;2023-04-03T05:52:44;2.17;;;0.10;;
78120;SDS011;67585;44.802;10.332;2023-04-03T05:55:13;1.58;;;0.20;;
78120;SDS011;67585;44.802;10.332;2023-04-03T05:57:38;2.13;;;0.30;;
78120;SDS011;67585;44.802;10.332;2023-04-03T06:00:05;2.40;;;0.30;;
78120;SDS011;67585;44.802;10.332;2023-04-03T06:02:32;4.25;;;0.45;;
78120;SDS011;67585;44.802;10.332;2023-04-03T06:04:57;3.33;;;0.85;;
78120;SDS011;67585;44.802;10.332;2023-04-03T06:07:23;2.92;;;0.38;;
78120;SDS011;67585;44.802;10.332;2023-04-03T06:09:52;6.32;;;1.05;;
78120;SDS011;67585;44.802;10.332;2023-04-03T06:12:18;3.00;;;0.57;;
78120;SDS011;67585;44.802;10.332;2023-04-03T06:14:44;4.03;;;0.55;;
78120;SDS011;67585;44.802;10.332;2023-04-03T06:17:10;5.85;;;0.40;;
78120;SDS011;67585;44.802;10.332;2023-04-03T06:19:37;2.95;;;0.82;;
78120;SDS011;67585;44.802;10.332;2023-04-03T06:22:03;4.00;;;0.75;;
78120;SDS011;67585;44.802;10.332;2023-04-03T06:24:28;2.67;;;0.65;;
78120;SDS011;67585;44.802;10.332;2023-04-03T06:26:55;3.03;;;0.65;;
78120;SDS011;67585;44.802;10.332;2023-04-03T06:29:21;3.58;;;0.80;;
78120;SDS011;67585;44.802;10.332;2023-04-03T06:31:47;3.45;;;0.63;;
78120;SDS011;67585;44.802;10.332;2023-04-03T06:34:13;3.33;;;0.90;;
78120;SDS011;67585;44.802;10.332;2023-04-03T06:36:40;3.10;;;0.80;;
78120;SDS011;67585;44.802;10.332;2023-04-03T06:39:06;6.72;;;0.98;;
78120;SDS011;67585;44.802;10.332;2023-04-03T06:41:32;4.45;;;0.60;;
78120;SDS011;67585;44.802;10.332;2023-04-03T06:43:58;9.05;;;1.83;;
78120;SDS011;67585;44.802;10.332;2023-04-03T06:46:24;5.22;;;1.10;;
78120;SDS011;67585;44.802;10.332;2023-04-03T06:48:51;4.35;;;0.93;;
78120;SDS011;67585;44.802;10.332;2023-04-03T06:51:18;5.90;;;0.95;;
78120;SDS011;67585;44.802;10.332;2023-04-03T06:53:51;4.68;;;1.60;;
78120;SDS011;67585;44.802;10.332;2023-04-03T06:56:18;5.63;;;1.08;;
78120;SDS011;67585;44.802;10.332;2023-04-03T06:58:44;6.95;;;1.35;;
78120;SDS011;67585;44.802;10.332;2023-04-03T07:01:11;4.55;;;1.50;;
78120;SDS011;67585;44.802;10.332;2023-04-03T07:03:38;5.68;;;2.03;;
78120;SDS011;67585;44.802;10.332;2023-04-03T07:06:05;4.80;;;1.83;;
78120;SDS011;67585;44.802;10.332;2023-04-03T07:10:57;4.97;;;1.83;;
78120;SDS011;67585;44.802;10.332;2023-04-03T07:13:23;7.97;;;2.05;;
78120;SDS011;67585;44.802;10.332;2023-04-03T07:15:48;7.95;;;3.22;;
78120;SDS011;67585;44.802;10.332;2023-04-03T07:18:14;7.53;;;3.17;;
78120;SDS011;67585;44.802;10.332;2023-04-03T07:20:39;6.75;;;2.30;;
78120;SDS011;67585;44.802;10.332;2023-04-03T07:23:05;6.07;;;2.10;;
78120;SDS011;67585;44.802;10.332;2023-04-03T07:25:30;6.80;;;2.75;;
78120;SDS011;67585;44.802;10.332;2023-04-03T07:27:56;8.63;;;2.97;;
78120;SDS011;67585;44.802;10.332;2023-04-03T07:30:22;6.78;;;2.72;;
78120;SDS011;67585;44.802;10.332;2023-04-03T07:32:48;8.57;;;3.47;;
78120;SDS011;67585;44.802;10.332;2023-04-03T07:35:13;9.35;;;3.60;;
78120;SDS011;67585;44.802;10.332;2023-04-03T07:37:39;7.53;;;2.97;;
78120;SDS011;67585;44.802;10.332;2023-04-03T07:40:05;7.40;;;2.70;;
78120;SDS011;67585;44.802;10.332;2023-04-03T07:42:31;9.43;;;3.03;;
78120;SDS011;67585;44.802;10.332;2023-04-03T07:44:57;8.18;;;2.97;;
78120;SDS011;67585;44.802;10.332;2023-04-03T07:47:22;8.52;;;3.53;;
78120;SDS011;67585;44.802;10.332;2023-04-03T07:49:48;7.30;;;4.03;;
78120;SDS011;67585;44.802;10.332;2023-04-03T07:52:13;8.38;;;3.08;;
78120;SDS011;67585;44.802;10.332;2023-04-03T07:54:41;9.90;;;3.17;;
78120;SDS011;67585;44.802;10.332;2023-04-03T07:57:07;6.50;;;3.03;;
78120;SDS011;67585;44.802;10.332;2023-04-03T07:59:32;6.70;;;2.90;;
78120;SDS011;67585;44.802;10.332;2023-04-03T08:01:58;6.43;;;2.95;;
78120;SDS011;67585;44.802;10.332;2023-04-03T08:04:24;9.30;;;3.58;;
78120;SDS011;67585;44.802;10.332;2023-04-03T08:09:16;7.30;;;2.70;;
78120;SDS011;67585;44.802;10.332;2023-04-03T08:11:42;9.38;;;2.90;;
78120;SDS011;67585;44.802;10.332;2023-04-03T08:14:08;7.38;;;1.92;;
78120;SDS011;67585;44.802;10.332;2023-04-03T08:16:35;9.65;;;4.45;;
78120;SDS011;67585;44.802;10.332;2023-04-03T08:19:01;7.60;;;2.42;;
78120;SDS011;67585;44.802;10.332;2023-04-03T08:21:26;9.95;;;2.70;;
78120;SDS011;67585;44.802;10.332;2023-04-03T08:23:52;6.93;;;2.25;;
78120;SDS011;67585;44.802;10.332;2023-04-03T08:26:18;7.22;;;2.95;;
78120;SDS011;67585;44.802;10.332;2023-04-03T08:28:46;5.55;;;2.40;;
78120;SDS011;67585;44.802;10.332;2023-04-03T08:31:13;8.52;;;4.68;;
78120;SDS011;67585;44.802;10.332;2023-04-03T08:33:42;8.82;;;3.05;;
78120;SDS011;67585;44.802;10.332;2023-04-03T08:36:14;8.52;;;4.18;;
78120;SDS011;67585;44.802;10.332;2023-04-03T08:38:46;8.50;;;3.85;;
78120;SDS011;67585;44.802;10.332;2023-04-03T08:46:23;6.85;;;2.92;;
78120;SDS011;67585;44.802;10.332;2023-04-03T08:49:02;8.55;;;2.60;;
78120;SDS011;67585;44.802;10.332;2023-04-03T08:51:32;6.13;;;3.13;;
78120;SDS011;67585;44.802;10.332;2023-04-03T08:53:59;7.90;;;2.25;;
78120;SDS011;67585;44.802;10.332;2023-04-03T08:56:28;4.78;;;2.00;;
78120;SDS011;67585;44.802;10.332;2023-04-03T08:58:56;6.82;;;2.63;;
78120;SDS011;67585;44.802;10.332;2023-04-03T09:01:30;7.30;;;1.90;;
78120;SDS011;67585;44.802;10.332;2023-04-03T09:04:10;8.05;;;3.03;;
78120;SDS011;67585;44.802;10.332;2023-04-03T09:06:41;7.60;;;2.83;;
78120;SDS011;67585;44.802;10.332;2023-04-03T09:15:02;6.07;;;2.35;;
78120;SDS011;67585;44.802;10.332;2023-04-03T09:18:19;6.35;;;2.80;;
78120;SDS011;67585;44.802;10.332;2023-04-03T09:23:30;7.68;;;3.33;;
78120;SDS011;67585;44.802;10.332;2023-04-03T09:26:09;6.88;;;2.80;;
78120;SDS011;67585;44.802;10.332;2023-04-03T09:28:39;5.82;;;3.08;;
78120;SDS011;67585;44.802;10.332;2023-04-03T09:34:13;7.88;;;2.25;;
78120;SDS011;67585;44.802;10.332;2023-04-03T09:36:44;4.55;;;2.00;;
78120;SDS011;67585;44.802;10.332;2023-04-03T09:39:15;5.45;;;1.73;;
78120;SDS011;67585;44.802;10.332;2023-04-03T09:42:02;6.40;;;2.08;;
78120;SDS011;67585;44.802;10.332;2023-04-03T09:44:40;4.55;;;1.42;;
78120;SDS011;67585;44.802;10.332;2023-04-03T09:47:22;5.70;;;1.42;;
78120;SDS011;67585;44.802;10.332;2023-04-03T09:49:54;3.63;;;1.60;;
78120;SDS011;67585;44.802;10.332;2023-04-03T09:52:39;2.20;;;0.60;;
78120;SDS011;67585;44.802;10.332;2023-04-03T09:55:27;4.40;;;2.25;;
78120;SDS011;67585;44.802;10.332;2023-04-03T09:57:54;3.67;;;0.98;;
78120;SDS011;67585;44.802;10.332;2023-04-03T10:00:28;4.30;;;1.70;;
78120;SDS011;67585;44.802;10.332;2023-04-03T10:02:58;4.00;;;1.33;;
78120;SDS011;67585;44.802;10.332;2023-04-03T10:05:29;5.22;;;1.20;;
78120;SDS011;67585;44.802;10.332;2023-04-03T10:08:10;3.17;;;0.52;;
78120;SDS011;67585;44.802;10.332;2023-04-03T10:10:48;4.25;;;1.17;;
78120;SDS011;67585;44.802;10.332;2023-04-03T10:13:36;2.63;;;0.60;;
78120;SDS011;67585;44.802;10.332;2023-04-03T10:16:16;2.63;;;0.85;;
78120;SDS011;67585;44.802;10.332;2023-04-03T10:18:46;2.53;;;0.63;;
78120;SDS011;67585;44.802;10.332;2023-04-03T10:21:27;3.78;;;0.85;;
78120;SDS011;67585;44.802;10.332;2023-04-03T10:29:18;3.38;;;0.93;;
78120;SDS011;67585;44.802;10.332;2023-04-03T10:31:46;4.97;;;1.55;;
78120;SDS011;67585;44.802;10.332;2023-04-03T10:34:36;4.00;;;1.75;;
78120;SDS011;67585;44.802;10.332;2023-04-03T10:37:25;3.05;;;0.93;;
78120;SDS011;67585;44.802;10.332;2023-04-03T10:40:04;2.90;;;0.57;;
78120;SDS011;67585;44.802;10.332;2023-04-03T10:45:56;3.03;;;0.95;;
78120;SDS011;67585;44.802;10.332;2023-04-03T10:48:28;2.60;;;0.80;;
78120;SDS011;67585;44.802;10.332;2023-04-03T10:51:17;3.33;;;0.65;;
78120;SDS011;67585;44.802;10.332;2023-04-03T10:56:50;2.80;;;0.73;;
78120;SDS011;67585;44.802;10.332;2023-04-03T10:59:26;3.50;;;0.47;;
78120;SDS011;67585;44.802;10.332;2023-04-03T11:01:59;2.85;;;1.00;;
78120;SDS011;67585;44.802;10.332;2023-04-03T11:04:27;5.07;;;1.63;;
78120;SDS011;67585;44.802;10.332;2023-04-03T11:07:03;4.82;;;1.08;;
78120;SDS011;67585;44.802;10.332;2023-04-03T11:09:35;6.10;;;0.65;;
78120;SDS011;67585;44.802;10.332;2023-04-03T11:12:08;2.40;;;0.25;;
78120;SDS011;67585;44.802;10.332;2023-04-03T11:14:46;2.63;;;0.57;;
78120;SDS011;67585;44.802;10.332;2023-04-03T11:17:19;3.08;;;0.30;;
78120;SDS011;67585;44.802;10.332;2023-04-03T11:20:04;4.28;;;0.55;;
78120;SDS011;67585;44.802;10.332;2023-04-03T11:27:55;2.08;;;0.30;;
78120;SDS011;67585;44.802;10.332;2023-04-03T11:30:46;0.38;;;0.13;;
78120;SDS011;67585;44.802;10.332;2023-04-03T11:35:49;2.20;;;0.35;;
78120;SDS011;67585;44.802;10.332;2023-04-03T11:38:25;1.95;;;0.10;;
78120;SDS011;67585;44.802;10.332;2023-04-03T11:40:54;2.97;;;0.22;;
78120;SDS011;67585;44.802;10.332;2023-04-03T11:43:25;0.57;;;0.50;;
78120;SDS011;67585;44.802;10.332;2023-04-03T11:51:02;0.50;;;0.05;;
78120;SDS011;67585;44.802;10.332;2023-04-03T11:53:34;3.50;;;0.20;;
78120;SDS011;67585;44.802;10.332;2023-04-03T11:56:03;2.20;;;0.10;;
78120;SDS011;67585;44.802;10.332;2023-04-03T12:08:44;0.98;;;0.00;;
78120;SDS011;67585;44.802;10.332;2023-04-03T12:11:31;0.70;;;0.00;;
78120;SDS011;67585;44.802;10.332;2023-04-03T12:16:44;0.88;;;0.10;;
78120;SDS011;67585;44.802;10.332;2023-04-03T12:34:45;0.60;;;0.10;;
78120;SDS011;67585;44.802;10.332;2023-04-03T12:48:36;0.75;;;0.00;;
78120;SDS011;67585;44.802;10.332;2023-04-03T12:51:04;1.30;;;0.17;;
78120;SDS011;67585;44.802;10.332;2023-04-03T12:53:34;1.50;;;0.30;;
78120;SDS011;67585;44.802;10.332;2023-04-03T12:58:47;1.52;;;0.10;;
78120;SDS011;67585;44.802;10.332;2023-04-03T13:01:17;0.80;;;0.15;;
78120;SDS011;67585;44.802;10.332;2023-04-03T13:03:50;2.08;;;0.00;;
78120;SDS011;67585;44.802;10.332;2023-04-03T13:06:30;0.30;;;0.00;;
78120;SDS011;67585;44.802;10.332;2023-04-03T13:09:03;2.42;;;0.10;;
78120;SDS011;67585;44.802;10.332;2023-04-03T13:11:36;2.38;;;0.05;;
78120;SDS011;67585;44.802;10.332;2023-04-03T13:14:14;1.13;;;0.22;;
78120;SDS011;67585;44.802;10.332;2023-04-03T13:16:42;2.20;;;0.10;;
78120;SDS011;67585;44.802;10.332;2023-04-03T13:19:27;1.55;;;0.25;;
78120;SDS011;67585;44.802;10.332;2023-04-03T13:22:02;2.55;;;0.95;;
78120;SDS011;67585;44.802;10.332;2023-04-03T13:24:32;1.50;;;0.55;;
78120;SDS011;67585;44.802;10.332;2023-04-03T13:27:01;4.47;;;0.43;;
78120;SDS011;67585;44.802;10.332;2023-04-03T13:29:29;6.45;;;0.28;;
78120;SDS011;67585;44.802;10.332;2023-04-03T13:31:58;3.03;;;0.25;;
78120;SDS011;67585;44.802;10.332;2023-04-03T13:34:26;0.80;;;0.20;;
78120;SDS011;67585;44.802;10.332;2023-04-03T13:36:58;4.57;;;0.40;;
78120;SDS011;67585;44.802;10.332;2023-04-03T13:39:45;4.63;;;0.13;;
78120;SDS011;67585;44.802;10.332;2023-04-03T13:42:15;0.93;;;0.35;;
78120;SDS011;67585;44.802;10.332;2023-04-03T13:44:46;2.53;;;1.15;;
78120;SDS011;67585;44.802;10.332;2023-04-03T13:47:19;3.97;;;1.17;;
78120;SDS011;67585;44.802;10.332;2023-04-03T13:50:00;2.42;;;0.43;;
78120;SDS011;67585;44.802;10.332;2023-04-03T13:55:51;2.03;;;0.22;;
78120;SDS011;67585;44.802;10.332;2023-04-03T14:03:13;2.05;;;0.15;;
78120;SDS011;67585;44.802;10.332;2023-04-03T14:05:43;1.90;;;0.38;;
78120;SDS011;67585;44.802;10.332;2023-04-03T14:08:10;1.35;;;0.25;;
78120;SDS011;67585;44.802;10.332;2023-04-03T14:10:36;1.60;;;0.10;;
78120;SDS011;67585;44.802;10.332;2023-04-03T14:13:02;4.47;;;0.10;;
78120;SDS011;67585;44.802;10.332;2023-04-03T14:15:29;1.05;;;0.10;;
78120;SDS011;67585;44.802;10.332;2023-04-03T14:17:56;2.33;;;0.10;;
78120;SDS011;67585;44.802;10.332;2023-04-03T14:20:23;1.85;;;0.10;;
78120;SDS011;67585;44.802;10.332;2023-04-03T14:22:50;1.73;;;0.15;;
78120;SDS011;67585;44.802;10.332;2023-04-03T14:25:17;4.80;;;0.43;;
78120;SDS011;67585;44.802;10.332;2023-04-03T14:27:45;3.92;;;0.10;;
78120;SDS011;67585;44.802;10.332;2023-04-03T14:30:22;1.73;;;0.47;;
78120;SDS011;67585;44.802;10.332;2023-04-03T14:32:50;2.30;;;0.32;;
78120;SDS011;67585;44.802;10.332;2023-04-03T14:35:16;1.35;;;0.10;;
78120;SDS011;67585;44.802;10.332;2023-04-03T14:37:43;3.63;;;0.20;;
78120;SDS011;67585;44.802;10.332;2023-04-03T14:40:12;1.23;;;0.43;;
78120;SDS011;67585;44.802;10.332;2023-04-03T14:42:43;2.28;;;0.52;;
78120;SDS011;67585;44.802;10.332;2023-04-03T14:45:10;5.72;;;0.10;;
78120;SDS011;67585;44.802;10.332;2023-04-03T14:47:47;1.98;;;0.63;;
78120;SDS011;67585;44.802;10.332;2023-04-03T14:50:16;1.08;;;0.60;;
78120;SDS011;67585;44.802;10.332;2023-04-03T14:52:49;2.08;;;0.20;;
78120;SDS011;67585;44.802;10.332;2023-04-03T14:55:20;1.00;;;0.10;;
78120;SDS011;67585;44.802;10.332;2023-04-03T14:57:47;3.47;;;0.22;;
78120;SDS011;67585;44.802;10.332;2023-04-03T15:00:16;0.50;;;0.10;;
78120;SDS011;67585;44.802;10.332;2023-04-03T15:02:44;1.20;;;0.40;;
78120;SDS011;67585;44.802;10.332;2023-04-03T15:05:11;2.63;;;0.22;;
78120;SDS011;67585;44.802;10.332;2023-04-03T15:07:38;0.40;;;0.10;;
78120;SDS011;67585;44.802;10.332;2023-04-03T15:10:16;0.40;;;0.17;;
78120;SDS011;67585;44.802;10.332;2023-04-03T15:12:44;3.20;;;0.30;;
78120;SDS011;67585;44.802;10.332;2023-04-03T15:15:11;3.95;;;0.00;;
78120;SDS011;67585;44.802;10.332;2023-04-03T15:17:37;3.53;;;0.13;;
78120;SDS011;67585;44.802;10.332;2023-04-03T15:20:05;2.60;;;0.10;;
78120;SDS011;67585;44.802;10.332;2023-04-03T15:22:37;1.05;;;0.00;;
78120;SDS011;67585;44.802;10.332;2023-04-03T15:25:03;0.40;;;0.00;;
78120;SDS011;67585;44.802;10.332;2023-04-03T15:27:28;1.40;;;0.00;;
78120;SDS011;67585;44.802;10.332;2023-04-03T15:29:54;0.52;;;0.03;;
78120;SDS011;67585;44.802;10.332;2023-04-03T15:32:20;0.63;;;0.17;;
78120;SDS011;67585;44.802;10.332;2023-04-03T15:34:46;0.95;;;0.00;;
78120;SDS011;67585;44.802;10.332;2023-04-03T15:37:11;1.95;;;0.20;;
78120;SDS011;67585;44.802;10.332;2023-04-03T15:39:37;1.67;;;0.95;;
78120;SDS011;67585;44.802;10.332;2023-04-03T15:42:02;0.52;;;0.00;;
78120;SDS011;67585;44.802;10.332;2023-04-03T15:44:33;0.28;;;0.00;;
78120;SDS011;67585;44.802;10.332;2023-04-03T15:46:59;1.15;;;1.02;;
78120;SDS011;67585;44.802;10.332;2023-04-03T15:49:26;0.60;;;0.00;;
78120;SDS011;67585;44.802;10.332;2023-04-03T15:51:52;0.95;;;0.00;;
78120;SDS011;67585;44.802;10.332;2023-04-03T15:54:17;1.38;;;0.00;;
78120;SDS011;67585;44.802;10.332;2023-04-03T15:56:43;2.45;;;0.20;;
78120;SDS011;67585;44.802;10.332;2023-04-03T15:59:09;0.40;;;0.00;;
78120;SDS011;67585;44.802;10.332;2023-04-03T16:01:35;2.95;;;0.00;;
78120;SDS011;67585;44.802;10.332;2023-04-03T16:04:03;0.50;;;0.10;;
78120;SDS011;67585;44.802;10.332;2023-04-03T16:06:29;1.00;;;0.00;;
78120;SDS011;67585;44.802;10.332;2023-04-03T16:08:55;1.33;;;0.00;;
78120;SDS011;67585;44.802;10.332;2023-04-03T16:11:23;1.67;;;0.30;;
78120;SDS011;67585;44.802;10.332;2023-04-03T16:13:51;0.80;;;0.10;;
78120;SDS011;67585;44.802;10.332;2023-04-03T16:16:16;1.60;;;0.00;;
78120;SDS011;67585;44.802;10.332;2023-04-03T16:18:41;1.73;;;0.00;;
78120;SDS011;67585;44.802;10.332;2023-04-03T16:21:07;1.02;;;0.40;;
78120;SDS011;67585;44.802;10.332;2023-04-03T16:23:33;0.80;;;0.10;;
78120;SDS011;67585;44.802;10.332;2023-04-03T16:25:59;1.35;;;0.35;;
78120;SDS011;67585;44.802;10.332;2023-04-03T16:28:24;1.90;;;0.10;;
78120;SDS011;67585;44.802;10.332;2023-04-03T16:30:50;2.65;;;0.13;;
78120;SDS011;67585;44.802;10.332;2023-04-03T16:33:16;3.00;;;0.40;;